MOL Celebration — C6WW7 — position and weather

sailwx.info

Track history (hours):
 
Tides and Currents Weather Stations Pressure Air Temp Water Temp Dewpoint Dewpoint Depression Visibility Wind Speed Wind Dir Waves Ship Positions

MOL Celebration

Last reported at 2015-Aug-27 16:32 UTC. Time now 2015-Sep-02 00:28 UTC.
Position N 35°09' E 140°41'.

Length 316 m; draft 13.1 m.

Type: Ship (hazmat cat D). MMSI: 309901000.

Date/timePositionNaut miles runAvg speedWind from/ knotsBaromVisibWave heightAir tempDewpointWater temp
2015-Aug-27 16:32N 35°09' E 140°41'1615.9
2015-Aug-27 15:33N 35°01' E 140°25'1514.8
2015-Aug-27 14:33N 34°54' E 140°09'1414.2
2015-Aug-27 13:33N 34°47' E 139°54'  
2015-Aug-24 10:10N 23°32' E 118°01'1319.0
2015-Aug-24 09:30N 23°24' E 117°50'7619.2
2015-Aug-24 05:32N 22°34' E 116°48'11618.2
2015-Aug-23 23:09N 22°08' E 114°46'1218.7
2015-Aug-23 22:32N 22°07' E 114°33'1616.0
2015-Aug-23 21:33N 22°07' E 114°16'10 9.3
2015-Aug-23 20:27N 22°14' E 114°08'6 6.6
2015-Aug-23 19:34N 22°20' E 114°07'0 0.1
2015-Aug-23 18:32N 22°20' E 114°08'0 0.0
2015-Aug-23 17:32N 22°20' E 114°08'0 0.0
2015-Aug-23 16:20N 22°20' E 114°08'0 0.0
2015-Aug-23 15:32N 22°20' E 114°08'0 0.0
2015-Aug-23 13:32N 22°20' E 114°08'0 0.0
2015-Aug-23 12:32N 22°20' E 114°08'0 0.0
2015-Aug-23 11:32N 22°20' E 114°08'0 0.0
2015-Aug-23 10:29N 22°20' E 114°08'0 0.0
2015-Aug-23 09:23N 22°20' E 114°08'0 0.0
2015-Aug-23 08:17N 22°20' E 114°08'0 0.0
2015-Aug-23 07:29N 22°20' E 114°08'0 0.0
2015-Aug-23 06:29N 22°20' E 114°08'0 0.0
2015-Aug-23 05:32N 22°20' E 114°08'0 0.0
2015-Aug-23 04:23N 22°20' E 114°08'0 0.0
2015-Aug-23 03:14N 22°20' E 114°08'0 0.0
2015-Aug-23 02:32N 22°20' E 114°08'0 0.0
2015-Aug-23 01:32N 22°20' E 114°08'0 0.2
2015-Aug-23 00:33N 22°20' E 114°07'8 6.5
2015-Aug-22 23:24N 22°13' E 114°10'9 8.3
2015-Aug-22 22:21N 22°08' E 114°18'7 9.2
2015-Aug-22 21:32N 22°06' E 114°26'1010.2
2015-Aug-22 20:33N 21°56' E 114°24'1312.8
2015-Aug-22 19:32N 21°43' E 114°20'  
Track history (hours):
 
Tides and Currents Weather Stations Pressure Air Temp Water Temp Dewpoint Dewpoint Depression Visibility Wind Speed Wind Dir Waves Ship Positions

MOL Celebration

Last reported at 2015-Aug-27 16:32 UTC. Time now 2015-Sep-02 00:28 UTC.
Position N 35°09' E 140°41'.

Length 316 m; draft 13.1 m.

Type: Ship (hazmat cat D). MMSI: 309901000.

Date/timePositionNaut miles runAvg speedWind from/ knotsBaromVisibWave heightAir tempDewpointWater temp
2015-Aug-27 16:32N 35°09' E 140°41'1615.9
2015-Aug-27 15:33N 35°01' E 140°25'1514.8
2015-Aug-27 14:33N 34°54' E 140°09'1414.2
2015-Aug-27 13:33N 34°47' E 139°54'  
2015-Aug-24 10:10N 23°32' E 118°01'1319.0
2015-Aug-24 09:30N 23°24' E 117°50'7619.2
2015-Aug-24 05:32N 22°34' E 116°48'11618.2
2015-Aug-23 23:09N 22°08' E 114°46'1218.7
2015-Aug-23 22:32N 22°07' E 114°33'1616.0
2015-Aug-23 21:33N 22°07' E 114°16'10 9.3
2015-Aug-23 20:27N 22°14' E 114°08'6 6.6
2015-Aug-23 19:34N 22°20' E 114°07'0 0.1
2015-Aug-23 18:32N 22°20' E 114°08'0 0.0
2015-Aug-23 17:32N 22°20' E 114°08'0 0.0
2015-Aug-23 16:20N 22°20' E 114°08'0 0.0
2015-Aug-23 15:32N 22°20' E 114°08'0 0.0
2015-Aug-23 13:32N 22°20' E 114°08'0 0.0
2015-Aug-23 12:32N 22°20' E 114°08'0 0.0
2015-Aug-23 11:32N 22°20' E 114°08'0 0.0
2015-Aug-23 10:29N 22°20' E 114°08'0 0.0
2015-Aug-23 09:23N 22°20' E 114°08'0 0.0
2015-Aug-23 08:17N 22°20' E 114°08'0 0.0
2015-Aug-23 07:29N 22°20' E 114°08'0 0.0
2015-Aug-23 06:29N 22°20' E 114°08'0 0.0
2015-Aug-23 05:32N 22°20' E 114°08'0 0.0
2015-Aug-23 04:23N 22°20' E 114°08'0 0.0
2015-Aug-23 03:14N 22°20' E 114°08'0 0.0
2015-Aug-23 02:32N 22°20' E 114°08'0 0.0
2015-Aug-23 01:32N 22°20' E 114°08'0 0.2
2015-Aug-23 00:33N 22°20' E 114°07'8 6.5
2015-Aug-22 23:24N 22°13' E 114°10'9 8.3
2015-Aug-22 22:21N 22°08' E 114°18'7 9.2
2015-Aug-22 21:32N 22°06' E 114°26'1010.2
2015-Aug-22 20:33N 21°56' E 114°24'1312.8
2015-Aug-22 19:32N 21°43' E 114°20'  

Dump ship's entire track history